sensor_id;sensor_type;location;lat;lon;timestamp;P1;durP1;ratioP1;P2;durP2;ratioP2
65924;SDS011;66010;52.084;5.412;2023-04-03T00:02:22;3.25;;;1.30;;
65924;SDS011;66010;52.084;5.412;2023-04-03T00:04:49;4.50;;;1.30;;
65924;SDS011;66010;52.084;5.412;2023-04-03T00:07:15;5.75;;;1.35;;
65924;SDS011;66010;52.084;5.412;2023-04-03T00:09:42;4.20;;;1.10;;
65924;SDS011;66010;52.084;5.412;2023-04-03T00:12:08;7.20;;;1.27;;
65924;SDS011;66010;52.084;5.412;2023-04-03T00:14:35;2.83;;;1.15;;
65924;SDS011;66010;52.084;5.412;2023-04-03T00:17:01;2.58;;;1.20;;
65924;SDS011;66010;52.084;5.412;2023-04-03T00:19:28;4.57;;;1.00;;
65924;SDS011;66010;52.084;5.412;2023-04-03T00:21:54;5.13;;;1.27;;
65924;SDS011;66010;52.084;5.412;2023-04-03T00:24:21;2.05;;;1.02;;
65924;SDS011;66010;52.084;5.412;2023-04-03T00:26:47;3.63;;;1.30;;
65924;SDS011;66010;52.084;5.412;2023-04-03T00:29:14;4.30;;;1.15;;
65924;SDS011;66010;52.084;5.412;2023-04-03T00:31:40;1.77;;;1.10;;
65924;SDS011;66010;52.084;5.412;2023-04-03T00:34:07;3.72;;;1.20;;
65924;SDS011;66010;52.084;5.412;2023-04-03T00:36:34;2.65;;;1.10;;
65924;SDS011;66010;52.084;5.412;2023-04-03T00:39:00;2.70;;;1.10;;
65924;SDS011;66010;52.084;5.412;2023-04-03T00:41:27;2.17;;;1.10;;
65924;SDS011;66010;52.084;5.412;2023-04-03T00:43:54;1.95;;;1.00;;
65924;SDS011;66010;52.084;5.412;2023-04-03T00:46:20;2.40;;;1.02;;
65924;SDS011;66010;52.084;5.412;2023-04-03T00:48:47;3.70;;;1.15;;
65924;SDS011;66010;52.084;5.412;2023-04-03T00:51:14;3.17;;;1.40;;
65924;SDS011;66010;52.084;5.412;2023-04-03T00:53:46;5.25;;;1.20;;
65924;SDS011;66010;52.084;5.412;2023-04-03T00:56:15;3.08;;;1.30;;
65924;SDS011;66010;52.084;5.412;2023-04-03T00:58:57;3.97;;;1.27;;
65924;SDS011;66010;52.084;5.412;2023-04-03T01:01:26;6.05;;;1.38;;
65924;SDS011;66010;52.084;5.412;2023-04-03T01:03:53;2.50;;;1.10;;
65924;SDS011;66010;52.084;5.412;2023-04-03T01:06:23;3.40;;;1.10;;
65924;SDS011;66010;52.084;5.412;2023-04-03T01:08:51;2.63;;;1.20;;
65924;SDS011;66010;52.084;5.412;2023-04-03T01:11:19;2.78;;;1.20;;
65924;SDS011;66010;52.084;5.412;2023-04-03T01:13:47;2.85;;;1.10;;
65924;SDS011;66010;52.084;5.412;2023-04-03T01:16:15;8.23;;;1.40;;
65924;SDS011;66010;52.084;5.412;2023-04-03T01:18:42;3.78;;;1.20;;
65924;SDS011;66010;52.084;5.412;2023-04-03T01:26:29;3.20;;;1.10;;
65924;SDS011;66010;52.084;5.412;2023-04-03T01:28:56;4.75;;;1.15;;
65924;SDS011;66010;52.084;5.412;2023-04-03T01:31:26;2.53;;;0.90;;
65924;SDS011;66010;52.084;5.412;2023-04-03T01:33:55;2.33;;;1.10;;
65924;SDS011;66010;52.084;5.412;2023-04-03T01:36:23;2.55;;;1.00;;
65924;SDS011;66010;52.084;5.412;2023-04-03T01:38:50;3.92;;;1.30;;
65924;SDS011;66010;52.084;5.412;2023-04-03T01:41:17;5.63;;;1.23;;
65924;SDS011;66010;52.084;5.412;2023-04-03T01:43:45;4.07;;;1.25;;
65924;SDS011;66010;52.084;5.412;2023-04-03T01:46:12;2.85;;;1.17;;
65924;SDS011;66010;52.084;5.412;2023-04-03T01:48:38;2.75;;;1.08;;
65924;SDS011;66010;52.084;5.412;2023-04-03T01:51:05;1.70;;;1.00;;
65924;SDS011;66010;52.084;5.412;2023-04-03T01:53:32;2.13;;;1.30;;
65924;SDS011;66010;52.084;5.412;2023-04-03T01:55:58;3.95;;;1.20;;
65924;SDS011;66010;52.084;5.412;2023-04-03T01:58:25;4.50;;;1.20;;
65924;SDS011;66010;52.084;5.412;2023-04-03T02:00:52;2.83;;;1.17;;
65924;SDS011;66010;52.084;5.412;2023-04-03T02:03:19;2.50;;;0.93;;
65924;SDS011;66010;52.084;5.412;2023-04-03T02:05:46;2.55;;;1.25;;
65924;SDS011;66010;52.084;5.412;2023-04-03T02:08:13;5.20;;;1.25;;
65924;SDS011;66010;52.084;5.412;2023-04-03T02:10:40;3.13;;;1.00;;
65924;SDS011;66010;52.084;5.412;2023-04-03T02:13:06;3.28;;;1.30;;
65924;SDS011;66010;52.084;5.412;2023-04-03T02:15:33;3.78;;;1.17;;
65924;SDS011;66010;52.084;5.412;2023-04-03T02:18:00;3.78;;;1.10;;
65924;SDS011;66010;52.084;5.412;2023-04-03T02:20:33;3.08;;;1.13;;
65924;SDS011;66010;52.084;5.412;2023-04-03T02:22:59;3.50;;;1.10;;
65924;SDS011;66010;52.084;5.412;2023-04-03T02:25:26;3.58;;;1.10;;
65924;SDS011;66010;52.084;5.412;2023-04-03T02:27:52;3.55;;;1.08;;
65924;SDS011;66010;52.084;5.412;2023-04-03T02:30:19;2.92;;;1.20;;
65924;SDS011;66010;52.084;5.412;2023-04-03T02:32:45;6.07;;;1.70;;
65924;SDS011;66010;52.084;5.412;2023-04-03T02:35:12;4.68;;;1.15;;
65924;SDS011;66010;52.084;5.412;2023-04-03T02:37:39;3.88;;;1.20;;
65924;SDS011;66010;52.084;5.412;2023-04-03T02:40:06;4.05;;;1.38;;
65924;SDS011;66010;52.084;5.412;2023-04-03T02:42:34;2.50;;;1.13;;
65924;SDS011;66010;52.084;5.412;2023-04-03T02:45:02;3.63;;;1.30;;
65924;SDS011;66010;52.084;5.412;2023-04-03T02:47:28;4.43;;;1.23;;
65924;SDS011;66010;52.084;5.412;2023-04-03T02:49:55;3.28;;;1.23;;
65924;SDS011;66010;52.084;5.412;2023-04-03T02:52:21;2.17;;;1.02;;
65924;SDS011;66010;52.084;5.412;2023-04-03T02:54:49;3.13;;;1.20;;
65924;SDS011;66010;52.084;5.412;2023-04-03T02:57:16;3.15;;;1.10;;
65924;SDS011;66010;52.084;5.412;2023-04-03T02:59:42;2.67;;;1.25;;
65924;SDS011;66010;52.084;5.412;2023-04-03T03:02:11;3.75;;;1.25;;
65924;SDS011;66010;52.084;5.412;2023-04-03T03:04:37;4.80;;;1.30;;
65924;SDS011;66010;52.084;5.412;2023-04-03T03:07:04;5.43;;;1.20;;
65924;SDS011;66010;52.084;5.412;2023-04-03T03:09:31;5.10;;;1.40;;
65924;SDS011;66010;52.084;5.412;2023-04-03T03:11:58;4.28;;;1.45;;
65924;SDS011;66010;52.084;5.412;2023-04-03T03:14:24;7.97;;;1.30;;
65924;SDS011;66010;52.084;5.412;2023-04-03T03:16:51;3.45;;;1.23;;
65924;SDS011;66010;52.084;5.412;2023-04-03T03:19:17;3.70;;;1.40;;
65924;SDS011;66010;52.084;5.412;2023-04-03T03:21:44;7.70;;;1.60;;
65924;SDS011;66010;52.084;5.412;2023-04-03T03:24:10;3.80;;;1.33;;
65924;SDS011;66010;52.084;5.412;2023-04-03T03:26:38;4.53;;;1.20;;
65924;SDS011;66010;52.084;5.412;2023-04-03T03:29:04;4.28;;;1.20;;
65924;SDS011;66010;52.084;5.412;2023-04-03T03:31:31;3.95;;;1.20;;
65924;SDS011;66010;52.084;5.412;2023-04-03T03:33:58;3.88;;;1.15;;
65924;SDS011;66010;52.084;5.412;2023-04-03T03:36:24;3.45;;;1.25;;
65924;SDS011;66010;52.084;5.412;2023-04-03T03:38:51;2.97;;;1.20;;
65924;SDS011;66010;52.084;5.412;2023-04-03T03:41:17;3.30;;;1.20;;
65924;SDS011;66010;52.084;5.412;2023-04-03T03:43:44;5.47;;;1.40;;
65924;SDS011;66010;52.084;5.412;2023-04-03T03:46:12;2.72;;;1.20;;
65924;SDS011;66010;52.084;5.412;2023-04-03T03:48:39;3.28;;;1.33;;
65924;SDS011;66010;52.084;5.412;2023-04-03T03:51:05;4.82;;;1.38;;
65924;SDS011;66010;52.084;5.412;2023-04-03T03:53:35;4.78;;;1.30;;
65924;SDS011;66010;52.084;5.412;2023-04-03T03:56:05;5.32;;;1.40;;
65924;SDS011;66010;52.084;5.412;2023-04-03T03:58:33;4.82;;;1.27;;
65924;SDS011;66010;52.084;5.412;2023-04-03T04:01:01;3.30;;;1.38;;
65924;SDS011;66010;52.084;5.412;2023-04-03T04:03:29;3.65;;;1.40;;
65924;SDS011;66010;52.084;5.412;2023-04-03T04:05:56;3.80;;;1.10;;
65924;SDS011;66010;52.084;5.412;2023-04-03T04:08:23;4.47;;;1.23;;
65924;SDS011;66010;52.084;5.412;2023-04-03T04:10:49;3.60;;;1.20;;
65924;SDS011;66010;52.084;5.412;2023-04-03T04:13:17;3.88;;;1.20;;
65924;SDS011;66010;52.084;5.412;2023-04-03T04:15:44;2.67;;;1.38;;
65924;SDS011;66010;52.084;5.412;2023-04-03T04:18:12;3.30;;;1.10;;
65924;SDS011;66010;52.084;5.412;2023-04-03T04:20:41;4.30;;;1.15;;
65924;SDS011;66010;52.084;5.412;2023-04-03T04:23:08;4.18;;;1.20;;
65924;SDS011;66010;52.084;5.412;2023-04-03T04:25:36;3.45;;;1.30;;
65924;SDS011;66010;52.084;5.412;2023-04-03T04:28:04;3.70;;;1.20;;
65924;SDS011;66010;52.084;5.412;2023-04-03T04:30:30;5.38;;;1.20;;
65924;SDS011;66010;52.084;5.412;2023-04-03T04:32:57;6.43;;;1.38;;
65924;SDS011;66010;52.084;5.412;2023-04-03T04:35:24;6.13;;;1.60;;
65924;SDS011;66010;52.084;5.412;2023-04-03T04:37:51;3.85;;;1.27;;
65924;SDS011;66010;52.084;5.412;2023-04-03T04:40:18;8.57;;;1.50;;
65924;SDS011;66010;52.084;5.412;2023-04-03T04:42:45;4.80;;;1.20;;
65924;SDS011;66010;52.084;5.412;2023-04-03T04:45:12;5.05;;;1.42;;
65924;SDS011;66010;52.084;5.412;2023-04-03T04:47:41;4.72;;;1.58;;
65924;SDS011;66010;52.084;5.412;2023-04-03T04:52:34;3.97;;;1.13;;
65924;SDS011;66010;52.084;5.412;2023-04-03T04:55:01;6.43;;;1.40;;
65924;SDS011;66010;52.084;5.412;2023-04-03T04:57:28;4.13;;;1.15;;
65924;SDS011;66010;52.084;5.412;2023-04-03T04:59:57;4.47;;;1.20;;
65924;SDS011;66010;52.084;5.412;2023-04-03T05:02:23;3.42;;;1.40;;
65924;SDS011;66010;52.084;5.412;2023-04-03T05:04:50;3.15;;;1.20;;
65924;SDS011;66010;52.084;5.412;2023-04-03T05:07:22;3.28;;;1.30;;
65924;SDS011;66010;52.084;5.412;2023-04-03T05:09:49;3.60;;;1.40;;
65924;SDS011;66010;52.084;5.412;2023-04-03T05:12:18;3.63;;;1.58;;
65924;SDS011;66010;52.084;5.412;2023-04-03T05:14:51;5.78;;;1.42;;
65924;SDS011;66010;52.084;5.412;2023-04-03T05:17:18;4.43;;;1.23;;
65924;SDS011;66010;52.084;5.412;2023-04-03T05:19:49;4.75;;;1.23;;
65924;SDS011;66010;52.084;5.412;2023-04-03T05:22:18;3.55;;;1.20;;
65924;SDS011;66010;52.084;5.412;2023-04-03T05:24:45;3.33;;;1.30;;
65924;SDS011;66010;52.084;5.412;2023-04-03T05:27:11;5.25;;;1.60;;
65924;SDS011;66010;52.084;5.412;2023-04-03T05:29:42;4.32;;;1.55;;
65924;SDS011;66010;52.084;5.412;2023-04-03T05:32:15;4.90;;;1.40;;
65924;SDS011;66010;52.084;5.412;2023-04-03T05:34:43;3.33;;;1.27;;
65924;SDS011;66010;52.084;5.412;2023-04-03T05:37:10;3.05;;;1.10;;
65924;SDS011;66010;52.084;5.412;2023-04-03T05:39:37;4.88;;;1.70;;
65924;SDS011;66010;52.084;5.412;2023-04-03T05:42:07;4.15;;;1.30;;
65924;SDS011;66010;52.084;5.412;2023-04-03T05:44:33;5.28;;;1.20;;
65924;SDS011;66010;52.084;5.412;2023-04-03T05:47:00;3.88;;;1.40;;
65924;SDS011;66010;52.084;5.412;2023-04-03T05:49:27;4.15;;;1.20;;
65924;SDS011;66010;52.084;5.412;2023-04-03T05:51:53;5.32;;;1.50;;
65924;SDS011;66010;52.084;5.412;2023-04-03T05:54:24;4.05;;;1.50;;
65924;SDS011;66010;52.084;5.412;2023-04-03T05:56:55;3.95;;;1.25;;
65924;SDS011;66010;52.084;5.412;2023-04-03T05:59:23;3.67;;;1.20;;
65924;SDS011;66010;52.084;5.412;2023-04-03T06:01:52;3.38;;;1.25;;
65924;SDS011;66010;52.084;5.412;2023-04-03T06:04:19;4.85;;;1.45;;
65924;SDS011;66010;52.084;5.412;2023-04-03T06:09:15;6.03;;;1.40;;
65924;SDS011;66010;52.084;5.412;2023-04-03T06:14:09;4.72;;;1.50;;
65924;SDS011;66010;52.084;5.412;2023-04-03T06:16:36;5.18;;;1.60;;
65924;SDS011;66010;52.084;5.412;2023-04-03T06:19:09;5.50;;;1.77;;
65924;SDS011;66010;52.084;5.412;2023-04-03T06:21:38;3.90;;;1.60;;
65924;SDS011;66010;52.084;5.412;2023-04-03T06:24:05;6.38;;;1.95;;
65924;SDS011;66010;52.084;5.412;2023-04-03T06:26:32;6.93;;;1.70;;
65924;SDS011;66010;52.084;5.412;2023-04-03T06:28:59;5.63;;;1.95;;
65924;SDS011;66010;52.084;5.412;2023-04-03T06:31:26;6.05;;;1.90;;
65924;SDS011;66010;52.084;5.412;2023-04-03T06:33:52;4.82;;;1.65;;
65924;SDS011;66010;52.084;5.412;2023-04-03T06:36:19;7.88;;;1.90;;
65924;SDS011;66010;52.084;5.412;2023-04-03T06:38:47;6.63;;;1.92;;
65924;SDS011;66010;52.084;5.412;2023-04-03T06:41:14;6.78;;;2.00;;
65924;SDS011;66010;52.084;5.412;2023-04-03T06:43:40;6.43;;;1.90;;
65924;SDS011;66010;52.084;5.412;2023-04-03T06:55:47;4.30;;;1.30;;
65924;SDS011;66010;52.084;5.412;2023-04-03T06:58:14;6.50;;;1.48;;
65924;SDS011;66010;52.084;5.412;2023-04-03T07:03:08;5.03;;;1.60;;
65924;SDS011;66010;52.084;5.412;2023-04-03T07:05:34;5.68;;;1.35;;
65924;SDS011;66010;52.084;5.412;2023-04-03T07:08:01;6.43;;;1.50;;
65924;SDS011;66010;52.084;5.412;2023-04-03T07:10:28;4.38;;;1.45;;
65924;SDS011;66010;52.084;5.412;2023-04-03T07:12:55;3.75;;;1.50;;
65924;SDS011;66010;52.084;5.412;2023-04-03T07:15:21;5.03;;;1.60;;
65924;SDS011;66010;52.084;5.412;2023-04-03T07:17:48;5.00;;;1.55;;
65924;SDS011;66010;52.084;5.412;2023-04-03T07:20:14;5.57;;;1.67;;
65924;SDS011;66010;52.084;5.412;2023-04-03T07:22:41;5.05;;;1.60;;
65924;SDS011;66010;52.084;5.412;2023-04-03T07:25:08;4.10;;;1.48;;
65924;SDS011;66010;52.084;5.412;2023-04-03T07:27:34;5.70;;;1.70;;
65924;SDS011;66010;52.084;5.412;2023-04-03T07:30:01;4.75;;;1.42;;
65924;SDS011;66010;52.084;5.412;2023-04-03T07:32:27;6.10;;;1.60;;
65924;SDS011;66010;52.084;5.412;2023-04-03T07:34:55;5.35;;;1.38;;
65924;SDS011;66010;52.084;5.412;2023-04-03T07:37:21;7.15;;;1.50;;
65924;SDS011;66010;52.084;5.412;2023-04-03T07:39:48;5.13;;;1.50;;
65924;SDS011;66010;52.084;5.412;2023-04-03T07:42:15;4.65;;;1.50;;
65924;SDS011;66010;52.084;5.412;2023-04-03T07:44:56;5.40;;;1.48;;
65924;SDS011;66010;52.084;5.412;2023-04-03T07:47:23;4.22;;;1.20;;
65924;SDS011;66010;52.084;5.412;2023-04-03T07:49:50;3.38;;;1.10;;
65924;SDS011;66010;52.084;5.412;2023-04-03T07:52:16;3.65;;;1.00;;
65924;SDS011;66010;52.084;5.412;2023-04-03T07:54:46;3.75;;;1.20;;
65924;SDS011;66010;52.084;5.412;2023-04-03T07:57:13;2.63;;;0.95;;
65924;SDS011;66010;52.084;5.412;2023-04-03T07:59:39;1.85;;;0.93;;
65924;SDS011;66010;52.084;5.412;2023-04-03T08:02:08;3.10;;;1.00;;
65924;SDS011;66010;52.084;5.412;2023-04-03T08:04:35;3.00;;;1.00;;
65924;SDS011;66010;52.084;5.412;2023-04-03T08:07:02;3.10;;;0.90;;
65924;SDS011;66010;52.084;5.412;2023-04-03T08:12:21;3.05;;;1.00;;
65924;SDS011;66010;52.084;5.412;2023-04-03T08:14:47;2.83;;;0.90;;
65924;SDS011;66010;52.084;5.412;2023-04-03T08:17:14;2.38;;;1.00;;
65924;SDS011;66010;52.084;5.412;2023-04-03T08:19:41;2.38;;;0.90;;
65924;SDS011;66010;52.084;5.412;2023-04-03T08:22:07;2.75;;;0.95;;
65924;SDS011;66010;52.084;5.412;2023-04-03T08:24:34;2.40;;;0.90;;
65924;SDS011;66010;52.084;5.412;2023-04-03T08:27:02;3.38;;;0.80;;
65924;SDS011;66010;52.084;5.412;2023-04-03T08:29:29;3.17;;;1.00;;
65924;SDS011;66010;52.084;5.412;2023-04-03T08:31:59;2.78;;;0.90;;
65924;SDS011;66010;52.084;5.412;2023-04-03T08:34:26;4.55;;;1.00;;
65924;SDS011;66010;52.084;5.412;2023-04-03T08:36:53;6.07;;;0.90;;
65924;SDS011;66010;52.084;5.412;2023-04-03T08:39:19;3.13;;;1.00;;
65924;SDS011;66010;52.084;5.412;2023-04-03T08:41:46;2.80;;;0.80;;
65924;SDS011;66010;52.084;5.412;2023-04-03T08:46:47;1.77;;;0.95;;
65924;SDS011;66010;52.084;5.412;2023-04-03T08:50:02;2.35;;;0.80;;
65924;SDS011;66010;52.084;5.412;2023-04-03T08:52:18;2.50;;;0.73;;
65924;SDS011;66010;52.084;5.412;2023-04-03T08:54:55;1.98;;;0.73;;
65924;SDS011;66010;52.084;5.412;2023-04-03T08:57:41;3.47;;;1.00;;
65924;SDS011;66010;52.084;5.412;2023-04-03T09:02:43;2.55;;;0.90;;
65924;SDS011;66010;52.084;5.412;2023-04-03T09:05:15;2.78;;;0.85;;
65924;SDS011;66010;52.084;5.412;2023-04-03T09:07:43;1.88;;;0.80;;
65924;SDS011;66010;52.084;5.412;2023-04-03T09:10:14;2.40;;;0.70;;
65924;SDS011;66010;52.084;5.412;2023-04-03T09:12:43;3.03;;;0.98;;
65924;SDS011;66010;52.084;5.412;2023-04-03T09:15:18;1.60;;;0.65;;
65924;SDS011;66010;52.084;5.412;2023-04-03T09:18:05;1.88;;;0.80;;
65924;SDS011;66010;52.084;5.412;2023-04-03T09:23:25;1.95;;;0.80;;
65924;SDS011;66010;52.084;5.412;2023-04-03T09:28:19;1.63;;;0.70;;
65924;SDS011;66010;52.084;5.412;2023-04-03T09:30:46;1.83;;;0.60;;
65924;SDS011;66010;52.084;5.412;2023-04-03T09:33:12;2.20;;;0.90;;
65924;SDS011;66010;52.084;5.412;2023-04-03T09:35:40;3.20;;;0.80;;
65924;SDS011;66010;52.084;5.412;2023-04-03T09:40:41;2.00;;;0.63;;
65924;SDS011;66010;52.084;5.412;2023-04-03T09:45:44;1.30;;;0.70;;
65924;SDS011;66010;52.084;5.412;2023-04-03T09:53:41;1.52;;;0.70;;
65924;SDS011;66010;52.084;5.412;2023-04-03T09:58:44;2.83;;;0.65;;
65924;SDS011;66010;52.084;5.412;2023-04-03T10:01:23;2.70;;;0.85;;
65924;SDS011;66010;52.084;5.412;2023-04-03T10:04:10;4.22;;;0.80;;
65924;SDS011;66010;52.084;5.412;2023-04-03T10:06:38;2.55;;;0.80;;
65924;SDS011;66010;52.084;5.412;2023-04-03T10:12:00;1.98;;;0.65;;
65924;SDS011;66010;52.084;5.412;2023-04-03T10:14:28;1.80;;;0.90;;
65924;SDS011;66010;52.084;5.412;2023-04-03T10:22:07;1.48;;;0.70;;
65924;SDS011;66010;52.084;5.412;2023-04-03T10:29:51;2.90;;;0.70;;
65924;SDS011;66010;52.084;5.412;2023-04-03T10:35:20;2.25;;;0.80;;
65924;SDS011;66010;52.084;5.412;2023-04-03T10:37:50;2.40;;;0.70;;
65924;SDS011;66010;52.084;5.412;2023-04-03T10:40:24;0.60;;;0.52;;
65924;SDS011;66010;52.084;5.412;2023-04-03T10:51:01;0.95;;;0.73;;
65924;SDS011;66010;52.084;5.412;2023-04-03T10:53:48;1.42;;;0.70;;
65924;SDS011;66010;52.084;5.412;2023-04-03T11:04:08;1.95;;;0.70;;
65924;SDS011;66010;52.084;5.412;2023-04-03T11:06:47;1.25;;;0.52;;
65924;SDS011;66010;52.084;5.412;2023-04-03T11:11:42;1.27;;;0.60;;
65924;SDS011;66010;52.084;5.412;2023-04-03T11:14:28;1.83;;;0.63;;
65924;SDS011;66010;52.084;5.412;2023-04-03T11:16:59;0.98;;;0.40;;
65924;SDS011;66010;52.084;5.412;2023-04-03T11:19:34;1.00;;;0.50;;
65924;SDS011;66010;52.084;5.412;2023-04-03T11:22:03;1.20;;;0.50;;
65924;SDS011;66010;52.084;5.412;2023-04-03T11:24:32;2.00;;;0.70;;
65924;SDS011;66010;52.084;5.412;2023-04-03T11:26:59;1.65;;;0.60;;
65924;SDS011;66010;52.084;5.412;2023-04-03T11:29:29;2.13;;;0.60;;
65924;SDS011;66010;52.084;5.412;2023-04-03T11:32:04;1.52;;;0.63;;
65924;SDS011;66010;52.084;5.412;2023-04-03T11:34:39;1.05;;;0.40;;
65924;SDS011;66010;52.084;5.412;2023-04-03T11:37:25;2.00;;;0.60;;
65924;SDS011;66010;52.084;5.412;2023-04-03T11:44:46;2.03;;;0.57;;
65924;SDS011;66010;52.084;5.412;2023-04-03T11:47:12;2.13;;;0.50;;
65924;SDS011;66010;52.084;5.412;2023-04-03T11:50:05;0.88;;;0.50;;
65924;SDS011;66010;52.084;5.412;2023-04-03T12:03:07;7.13;;;0.70;;
65924;SDS011;66010;52.084;5.412;2023-04-03T12:05:49;3.25;;;0.77;;
65924;SDS011;66010;52.084;5.412;2023-04-03T12:11:14;2.90;;;0.60;;
65924;SDS011;66010;52.084;5.412;2023-04-03T12:21:22;1.77;;;0.60;;
65924;SDS011;66010;52.084;5.412;2023-04-03T12:23:59;1.63;;;0.50;;
65924;SDS011;66010;52.084;5.412;2023-04-03T12:26:30;1.17;;;0.50;;
65924;SDS011;66010;52.084;5.412;2023-04-03T12:34:41;2.40;;;0.57;;
65924;SDS011;66010;52.084;5.412;2023-04-03T12:44:59;2.05;;;0.57;;
65924;SDS011;66010;52.084;5.412;2023-04-03T12:47:30;3.95;;;0.70;;
65924;SDS011;66010;52.084;5.412;2023-04-03T12:49:59;3.72;;;0.80;;
65924;SDS011;66010;52.084;5.412;2023-04-03T12:52:31;2.45;;;0.63;;
65924;SDS011;66010;52.084;5.412;2023-04-03T12:55:00;2.67;;;0.90;;
65924;SDS011;66010;52.084;5.412;2023-04-03T12:57:30;2.30;;;0.70;;
65924;SDS011;66010;52.084;5.412;2023-04-03T12:59:57;2.38;;;0.63;;
65924;SDS011;66010;52.084;5.412;2023-04-03T13:02:25;2.30;;;0.65;;
65924;SDS011;66010;52.084;5.412;2023-04-03T13:04:53;2.20;;;0.75;;
65924;SDS011;66010;52.084;5.412;2023-04-03T13:07:30;2.80;;;0.73;;
65924;SDS011;66010;52.084;5.412;2023-04-03T13:12:26;2.65;;;0.80;;
65924;SDS011;66010;52.084;5.412;2023-04-03T13:14:54;2.65;;;0.70;;
65924;SDS011;66010;52.084;5.412;2023-04-03T13:17:21;3.13;;;0.70;;
65924;SDS011;66010;52.084;5.412;2023-04-03T13:19:49;1.73;;;0.73;;
65924;SDS011;66010;52.084;5.412;2023-04-03T13:22:27;1.70;;;0.60;;
65924;SDS011;66010;52.084;5.412;2023-04-03T13:24:55;2.55;;;0.50;;
65924;SDS011;66010;52.084;5.412;2023-04-03T13:27:23;1.95;;;0.80;;
65924;SDS011;66010;52.084;5.412;2023-04-03T13:29:53;1.23;;;0.63;;
65924;SDS011;66010;52.084;5.412;2023-04-03T13:32:22;1.85;;;0.80;;
65924;SDS011;66010;52.084;5.412;2023-04-03T13:34:49;2.67;;;0.68;;
65924;SDS011;66010;52.084;5.412;2023-04-03T13:37:34;2.17;;;0.90;;
65924;SDS011;66010;52.084;5.412;2023-04-03T13:42:29;3.15;;;0.88;;
65924;SDS011;66010;52.084;5.412;2023-04-03T13:47:41;2.45;;;0.70;;
65924;SDS011;66010;52.084;5.412;2023-04-03T13:52:46;1.30;;;0.60;;
65924;SDS011;66010;52.084;5.412;2023-04-03T13:58:02;2.38;;;0.70;;
65924;SDS011;66010;52.084;5.412;2023-04-03T14:05:54;3.03;;;0.80;;
65924;SDS011;66010;52.084;5.412;2023-04-03T14:08:21;2.63;;;0.70;;
65924;SDS011;66010;52.084;5.412;2023-04-03T14:11:01;1.35;;;0.60;;
65924;SDS011;66010;52.084;5.412;2023-04-03T14:13:31;0.95;;;0.50;;
65924;SDS011;66010;52.084;5.412;2023-04-03T14:15:57;1.98;;;0.60;;
65924;SDS011;66010;52.084;5.412;2023-04-03T14:18:38;1.83;;;0.70;;
65924;SDS011;66010;52.084;5.412;2023-04-03T14:21:05;1.00;;;0.50;;
65924;SDS011;66010;52.084;5.412;2023-04-03T14:23:32;1.30;;;0.65;;
65924;SDS011;66010;52.084;5.412;2023-04-03T14:25:59;1.67;;;0.73;;
65924;SDS011;66010;52.084;5.412;2023-04-03T14:28:26;4.40;;;0.73;;
65924;SDS011;66010;52.084;5.412;2023-04-03T14:30:53;1.10;;;0.60;;
65924;SDS011;66010;52.084;5.412;2023-04-03T14:33:21;0.57;;;0.50;;
65924;SDS011;66010;52.084;5.412;2023-04-03T14:35:48;2.92;;;0.77;;
65924;SDS011;66010;52.084;5.412;2023-04-03T14:38:23;1.95;;;0.60;;
65924;SDS011;66010;52.084;5.412;2023-04-03T14:40:50;1.92;;;0.70;;
65924;SDS011;66010;52.084;5.412;2023-04-03T14:43:16;2.75;;;0.80;;
65924;SDS011;66010;52.084;5.412;2023-04-03T14:45:43;2.70;;;0.90;;
65924;SDS011;66010;52.084;5.412;2023-04-03T14:48:18;0.93;;;0.57;;
65924;SDS011;66010;52.084;5.412;2023-04-03T14:50:45;2.50;;;0.80;;
65924;SDS011;66010;52.084;5.412;2023-04-03T14:53:30;1.30;;;0.70;;
65924;SDS011;66010;52.084;5.412;2023-04-03T14:56:38;1.33;;;0.60;;
65924;SDS011;66010;52.084;5.412;2023-04-03T14:58:58;1.95;;;0.57;;
65924;SDS011;66010;52.084;5.412;2023-04-03T15:01:28;1.42;;;0.80;;
65924;SDS011;66010;52.084;5.412;2023-04-03T15:03:54;1.33;;;0.65;;
65924;SDS011;66010;52.084;5.412;2023-04-03T15:06:21;2.15;;;0.75;;
65924;SDS011;66010;52.084;5.412;2023-04-03T15:08:48;1.00;;;0.60;;
65924;SDS011;66010;52.084;5.412;2023-04-03T15:11:15;2.78;;;0.80;;
65924;SDS011;66010;52.084;5.412;2023-04-03T15:13:41;2.80;;;0.80;;
65924;SDS011;66010;52.084;5.412;2023-04-03T15:16:15;1.60;;;0.80;;
65924;SDS011;66010;52.084;5.412;2023-04-03T15:18:43;1.25;;;0.63;;
65924;SDS011;66010;52.084;5.412;2023-04-03T15:21:10;2.10;;;0.70;;
65924;SDS011;66010;52.084;5.412;2023-04-03T15:23:37;3.65;;;0.80;;
65924;SDS011;66010;52.084;5.412;2023-04-03T15:26:03;6.20;;;2.83;;
65924;SDS011;66010;52.084;5.412;2023-04-03T15:28:32;10.27;;;7.90;;
65924;SDS011;66010;52.084;5.412;2023-04-03T15:30:59;12.50;;;9.98;;
65924;SDS011;66010;52.084;5.412;2023-04-03T15:33:26;11.23;;;8.60;;
65924;SDS011;66010;52.084;5.412;2023-04-03T15:35:53;10.10;;;7.72;;
65924;SDS011;66010;52.084;5.412;2023-04-03T15:38:32;10.30;;;7.63;;
65924;SDS011;66010;52.084;5.412;2023-04-03T15:40:59;9.40;;;7.03;;
65924;SDS011;66010;52.084;5.412;2023-04-03T15:43:25;9.25;;;6.30;;
65924;SDS011;66010;52.084;5.412;2023-04-03T15:45:52;9.98;;;5.85;;
65924;SDS011;66010;52.084;5.412;2023-04-03T15:48:22;8.45;;;6.13;;
65924;SDS011;66010;52.084;5.412;2023-04-03T15:50:48;9.07;;;6.40;;
65924;SDS011;66010;52.084;5.412;2023-04-03T15:53:15;8.15;;;5.20;;
65924;SDS011;66010;52.084;5.412;2023-04-03T15:55:42;8.23;;;5.53;;
65924;SDS011;66010;52.084;5.412;2023-04-03T15:58:08;7.63;;;5.30;;
65924;SDS011;66010;52.084;5.412;2023-04-03T16:00:35;7.43;;;4.80;;
65924;SDS011;66010;52.084;5.412;2023-04-03T16:03:04;7.68;;;4.93;;
65924;SDS011;66010;52.084;5.412;2023-04-03T16:05:31;7.40;;;4.07;;
65924;SDS011;66010;52.084;5.412;2023-04-03T16:07:58;7.28;;;4.40;;
65924;SDS011;66010;52.084;5.412;2023-04-03T16:10:26;7.68;;;4.10;;
65924;SDS011;66010;52.084;5.412;2023-04-03T16:12:53;6.93;;;4.15;;
65924;SDS011;66010;52.084;5.412;2023-04-03T16:15:19;6.65;;;4.20;;
65924;SDS011;66010;52.084;5.412;2023-04-03T16:17:46;7.10;;;3.90;;
65924;SDS011;66010;52.084;5.412;2023-04-03T16:20:14;6.57;;;3.83;;
65924;SDS011;66010;52.084;5.412;2023-04-03T16:22:41;6.95;;;3.60;;
65924;SDS011;66010;52.084;5.412;2023-04-03T16:25:08;6.55;;;3.65;;
65924;SDS011;66010;52.084;5.412;2023-04-03T16:27:35;7.15;;;3.33;;
65924;SDS011;66010;52.084;5.412;2023-04-03T16:30:02;6.57;;;3.50;;
65924;SDS011;66010;52.084;5.412;2023-04-03T16:32:29;6.15;;;3.55;;
65924;SDS011;66010;52.084;5.412;2023-04-03T16:34:57;7.85;;;3.60;;
65924;SDS011;66010;52.084;5.412;2023-04-03T16:39:52;6.40;;;3.30;;
65924;SDS011;66010;52.084;5.412;2023-04-03T16:42:18;6.45;;;3.30;;
65924;SDS011;66010;52.084;5.412;2023-04-03T16:44:45;6.38;;;3.42;;
65924;SDS011;66010;52.084;5.412;2023-04-03T16:47:11;6.95;;;3.33;;
65924;SDS011;66010;52.084;5.412;2023-04-03T16:49:40;5.82;;;3.05;;
65924;SDS011;66010;52.084;5.412;2023-04-03T16:52:06;5.88;;;2.85;;
65924;SDS011;66010;52.084;5.412;2023-04-03T16:54:33;5.13;;;2.80;;
65924;SDS011;66010;52.084;5.412;2023-04-03T16:56:59;4.65;;;2.55;;
65924;SDS011;66010;52.084;5.412;2023-04-03T16:59:26;4.95;;;2.65;;
65924;SDS011;66010;52.084;5.412;2023-04-03T17:01:53;5.13;;;2.75;;
65924;SDS011;66010;52.084;5.412;2023-04-03T17:04:19;5.18;;;2.75;;
65924;SDS011;66010;52.084;5.412;2023-04-03T17:06:46;5.90;;;2.65;;
65924;SDS011;66010;52.084;5.412;2023-04-03T17:09:13;5.43;;;2.65;;
65924;SDS011;66010;52.084;5.412;2023-04-03T17:11:39;5.57;;;2.63;;
65924;SDS011;66010;52.084;5.412;2023-04-03T17:14:06;5.43;;;2.80;;
65924;SDS011;66010;52.084;5.412;2023-04-03T17:16:33;5.00;;;2.70;;
65924;SDS011;66010;52.084;5.412;2023-04-03T17:19:01;5.70;;;2.88;;
65924;SDS011;66010;52.084;5.412;2023-04-03T17:21:28;4.93;;;2.45;;
65924;SDS011;66010;52.084;5.412;2023-04-03T17:23:55;4.25;;;2.20;;